createdAt,value
2018-09-13T00:00:24.058Z,13.40
2018-09-13T00:00:59.588Z,13.95
2018-09-13T00:01:34.781Z,13.32
2018-09-13T00:02:10.108Z,12.53
2018-09-13T00:02:45.398Z,12.30
2018-09-13T00:03:20.754Z,12.10
2018-09-13T00:03:56.204Z,15.30
2018-09-13T00:04:31.433Z,13.00
2018-09-13T00:05:07.445Z,12.85
2018-09-13T00:05:42.917Z,12.43
2018-09-13T00:06:19.142Z,15.32
2018-09-13T00:06:54.563Z,12.50
2018-09-13T00:07:30.420Z,11.93
2018-09-13T00:08:06.282Z,14.85
2018-09-13T00:08:41.091Z,11.88
2018-09-13T00:09:16.745Z,15.32
2018-09-13T00:09:52.014Z,15.08
2018-09-13T00:10:27.693Z,14.45
2018-09-13T00:11:02.948Z,13.05
2018-09-13T00:11:39.350Z,12.90
2018-09-13T00:12:14.662Z,12.15
2018-09-13T00:12:49.904Z,13.43
2018-09-13T00:13:25.188Z,13.95
2018-09-13T00:14:00.454Z,11.43
2018-09-13T00:14:35.666Z,12.23
2018-09-13T00:15:11.057Z,12.07
2018-09-13T00:15:46.290Z,11.80
2018-09-13T00:16:21.717Z,13.78
2018-09-13T00:16:56.918Z,12.58
2018-09-13T00:17:32.163Z,12.33
2018-09-13T00:18:07.381Z,13.78
2018-09-13T00:18:42.759Z,11.40
2018-09-13T00:19:17.884Z,11.40
2018-09-13T00:19:53.110Z,15.20
2018-09-13T00:20:28.293Z,12.03
2018-09-13T00:21:03.556Z,12.88
2018-09-13T00:21:38.746Z,13.08
2018-09-13T00:22:14.270Z,14.33
2018-09-13T00:22:49.532Z,11.97
2018-09-13T00:23:24.723Z,13.35
2018-09-13T00:23:59.962Z,12.82
2018-09-13T00:24:35.145Z,11.78
2018-09-13T00:25:10.405Z,11.45
2018-09-13T00:25:45.709Z,13.85
2018-09-13T00:26:20.959Z,12.25
2018-09-13T00:26:56.178Z,12.40
2018-09-13T00:27:31.399Z,12.68
2018-09-13T00:28:06.794Z,11.28
2018-09-13T00:28:42.170Z,12.18
2018-09-13T00:29:17.418Z,12.47
2018-09-13T00:29:53.514Z,12.65
2018-09-13T00:30:28.726Z,13.28
2018-09-13T00:31:04.016Z,12.35
2018-09-13T00:31:39.287Z,12.23
2018-09-13T00:32:14.604Z,13.93
2018-09-13T00:32:49.846Z,14.73
2018-09-13T00:33:25.071Z,11.97
2018-09-13T00:34:00.297Z,13.95
2018-09-13T00:34:35.520Z,13.25
2018-09-13T00:35:11.346Z,12.78
2018-09-13T00:35:46.717Z,13.85
2018-09-13T00:36:21.984Z,12.47
2018-09-13T00:36:57.230Z,12.20
2018-09-13T00:37:32.425Z,12.37
2018-09-13T00:38:08.070Z,11.57
2018-09-13T00:38:43.874Z,11.83
2018-09-13T00:39:19.139Z,13.32
2018-09-13T00:39:54.379Z,12.73
2018-09-13T00:40:29.570Z,12.90
2018-09-13T00:41:04.847Z,15.10
2018-09-13T00:41:40.313Z,11.97
2018-09-13T00:42:15.703Z,13.48
2018-09-13T00:42:50.930Z,12.55
2018-09-13T00:43:26.122Z,11.28
2018-09-13T00:44:01.473Z,13.28
2018-09-13T00:44:36.693Z,12.28
2018-09-13T00:45:11.973Z,15.15
2018-09-13T00:45:47.260Z,15.13
2018-09-13T00:46:22.519Z,12.93
2018-09-13T00:46:57.718Z,12.03
2018-09-13T00:47:32.938Z,12.00
2018-09-13T00:48:08.509Z,14.20
2018-09-13T00:48:43.885Z,13.53
2018-09-13T00:49:19.136Z,12.68
2018-09-13T00:49:54.371Z,15.05
2018-09-13T00:50:29.583Z,12.30
2018-09-13T00:51:05.155Z,11.75
2018-09-13T00:51:40.443Z,11.60
2018-09-13T00:52:15.837Z,13.10
2018-09-13T00:52:51.073Z,11.75
2018-09-13T00:53:26.297Z,11.18
2018-09-13T00:54:01.691Z,12.95
2018-09-13T00:54:36.901Z,12.35
2018-09-13T00:55:12.189Z,12.80
2018-09-13T00:55:47.646Z,12.13
2018-09-13T00:56:22.904Z,12.05
2018-09-13T00:56:58.096Z,13.13
2018-09-13T00:57:33.293Z,12.43
2018-09-13T00:58:08.498Z,11.63
2018-09-13T00:58:43.837Z,12.80
2018-09-13T00:59:19.057Z,12.30
2018-09-13T00:59:54.276Z,13.53
2018-09-13T01:00:29.544Z,13.20
2018-09-13T01:01:04.766Z,11.20
2018-09-13T01:01:40.076Z,11.93
2018-09-13T01:02:15.718Z,14.50
2018-09-13T01:02:51.375Z,12.15
2018-09-13T01:03:26.574Z,12.05
2018-09-13T01:04:01.782Z,12.25
2018-09-13T01:04:36.993Z,10.78
2018-09-13T01:05:12.330Z,12.40
2018-09-13T01:05:47.604Z,12.45
2018-09-13T01:06:22.861Z,12.25
2018-09-13T01:06:58.066Z,11.18
2018-09-13T01:07:33.291Z,12.68
2018-09-13T01:08:08.512Z,11.78
2018-09-13T01:08:43.835Z,10.35
2018-09-13T01:09:19.145Z,14.45
2018-09-13T01:09:54.384Z,12.10
2018-09-13T01:10:29.603Z,14.28
2018-09-13T01:11:04.866Z,11.90
2018-09-13T01:11:40.544Z,12.88
2018-09-13T01:12:15.959Z,11.97
2018-09-13T01:12:51.280Z,11.12
2018-09-13T01:13:26.509Z,11.93
2018-09-13T01:14:01.754Z,10.72
2018-09-13T01:14:36.942Z,12.37
2018-09-13T01:15:12.395Z,12.73
2018-09-13T01:15:47.718Z,11.12
2018-09-13T01:16:22.985Z,13.88
2018-09-13T01:16:58.183Z,11.78
2018-09-13T01:17:33.790Z,14.65
2018-09-13T01:18:09.026Z,12.37
2018-09-13T01:18:44.974Z,11.22
2018-09-13T01:19:19.693Z,11.70
2018-09-13T01:19:55.139Z,12.63
2018-09-13T01:20:30.474Z,15.90
2018-09-13T01:21:06.275Z,13.93
2018-09-13T01:21:41.621Z,11.05
2018-09-13T01:22:17.397Z,11.22
2018-09-13T01:22:52.656Z,11.18
2018-09-13T01:23:27.861Z,12.45
2018-09-13T01:24:03.056Z,13.45
2018-09-13T01:24:38.243Z,11.30
2018-09-13T01:25:13.631Z,13.25
2018-09-13T01:25:49.082Z,11.63
2018-09-13T01:26:24.370Z,10.85
2018-09-13T01:26:59.591Z,12.03
2018-09-13T01:27:34.835Z,11.25
2018-09-13T01:28:10.037Z,13.90
2018-09-13T01:28:45.546Z,12.43
2018-09-13T01:29:20.967Z,13.95
2018-09-13T01:29:56.797Z,12.35
2018-09-13T01:30:31.994Z,12.03
2018-09-13T01:31:07.262Z,12.50
2018-09-13T01:31:42.655Z,12.18
2018-09-13T01:32:17.874Z,13.13
2018-09-13T01:32:52.618Z,11.78
2018-09-13T01:33:27.814Z,12.13
2018-09-13T01:34:03.018Z,13.25
2018-09-13T01:34:38.558Z,14.40
2018-09-13T01:35:13.885Z,16.23
2018-09-13T01:35:49.334Z,14.68
2018-09-13T01:36:24.534Z,15.35
2018-09-13T01:36:59.805Z,12.98
2018-09-13T01:37:34.979Z,11.85
2018-09-13T01:38:10.363Z,12.07
2018-09-13T01:38:46.006Z,14.15
2018-09-13T01:39:21.375Z,13.78
2018-09-13T01:39:56.562Z,12.85
2018-09-13T01:40:31.756Z,12.88
2018-09-13T01:41:07.028Z,12.98
2018-09-13T01:41:42.519Z,14.20
2018-09-13T01:42:18.275Z,13.40
2018-09-13T01:42:53.494Z,12.47
2018-09-13T01:43:28.710Z,12.23
2018-09-13T01:44:03.962Z,11.75
2018-09-13T01:44:39.176Z,12.07
2018-09-13T01:45:14.413Z,12.68
2018-09-13T01:45:49.723Z,12.20
2018-09-13T01:46:24.912Z,11.30
2018-09-13T01:47:00.120Z,13.72
2018-09-13T01:47:35.319Z,11.30
2018-09-13T01:48:10.688Z,11.48
2018-09-13T01:48:46.066Z,11.38
2018-09-13T01:49:21.341Z,14.07
2018-09-13T01:49:56.546Z,12.90
2018-09-13T01:50:31.763Z,12.18
2018-09-13T01:51:07.050Z,13.70
2018-09-13T01:51:42.362Z,10.93
2018-09-13T01:52:17.811Z,12.55
2018-09-13T01:52:53.002Z,12.78
2018-09-13T01:53:28.206Z,12.25
2018-09-13T01:54:03.423Z,13.68
2018-09-13T01:54:38.966Z,12.20
2018-09-13T01:55:14.310Z,13.30
2018-09-13T01:55:49.684Z,11.70
2018-09-13T01:56:24.880Z,11.63
2018-09-13T01:57:00.074Z,10.93
2018-09-13T01:57:35.355Z,12.35
2018-09-13T01:58:10.697Z,11.63
2018-09-13T01:58:46.034Z,11.35
2018-09-13T01:59:21.265Z,12.43
2018-09-13T01:59:56.840Z,13.00
2018-09-13T02:00:32.388Z,12.78
2018-09-13T02:01:07.647Z,15.35
2018-09-13T02:01:42.921Z,12.37
2018-09-13T02:02:18.309Z,11.20
2018-09-13T02:02:53.536Z,13.05
2018-09-13T02:03:28.731Z,12.18
2018-09-13T02:04:04.182Z,12.47
2018-09-13T02:04:39.464Z,12.45
2018-09-13T02:05:14.732Z,11.70
2018-09-13T02:05:50.069Z,12.75
2018-09-13T02:06:25.238Z,11.38
2018-09-13T02:07:00.447Z,12.28
2018-09-13T02:07:35.674Z,12.33
2018-09-13T02:08:10.905Z,12.50
2018-09-13T02:08:46.426Z,12.47
2018-09-13T02:09:21.630Z,15.18
2018-09-13T02:09:56.822Z,12.90
2018-09-13T02:10:32.018Z,12.60
2018-09-13T02:11:07.282Z,14.85
2018-09-13T02:11:42.607Z,14.55
2018-09-13T02:12:17.961Z,13.35
2018-09-13T02:12:53.161Z,12.40
2018-09-13T02:13:28.373Z,11.50
2018-09-13T02:14:03.560Z,13.53
2018-09-13T02:14:38.786Z,11.97
2018-09-13T02:15:14.264Z,13.22
2018-09-13T02:15:49.788Z,12.03
2018-09-13T02:16:24.999Z,12.10
2018-09-13T02:17:00.205Z,12.60
2018-09-13T02:17:35.399Z,12.47
2018-09-13T02:18:10.171Z,13.13
2018-09-13T02:18:45.575Z,12.63
2018-09-13T02:19:20.801Z,14.68
2018-09-13T02:19:56.032Z,12.98
2018-09-13T02:20:31.216Z,11.70
2018-09-13T02:21:06.473Z,13.13
2018-09-13T02:21:41.772Z,12.63
2018-09-13T02:22:17.039Z,11.53
2018-09-13T02:22:52.818Z,13.50
2018-09-13T02:23:28.268Z,13.05
2018-09-13T02:24:03.505Z,13.18
2018-09-13T02:24:38.729Z,13.78
2018-09-13T02:25:14.349Z,14.78
2018-09-13T02:25:49.634Z,12.70
2018-09-13T02:26:24.978Z,15.23
2018-09-13T02:27:00.206Z,12.10
2018-09-13T02:27:35.395Z,12.18
2018-09-13T02:28:10.764Z,13.25
2018-09-13T02:28:46.125Z,12.40
2018-09-13T02:29:21.364Z,12.90
2018-09-13T02:29:56.661Z,13.58
2018-09-13T02:30:31.842Z,12.50
2018-09-13T02:31:07.039Z,12.13
2018-09-13T02:31:42.840Z,12.53
2018-09-13T02:32:18.180Z,13.53
2018-09-13T02:32:53.663Z,11.68
2018-09-13T02:33:28.857Z,11.60
2018-09-13T02:34:04.143Z,12.23
2018-09-13T02:34:39.336Z,12.63
2018-09-13T02:35:14.647Z,12.75
2018-09-13T02:35:50.092Z,14.00
2018-09-13T02:36:25.270Z,12.37
2018-09-13T02:37:00.483Z,13.85
2018-09-13T02:37:35.729Z,13.45
2018-09-13T02:38:11.060Z,15.50
2018-09-13T02:38:46.326Z,14.93
2018-09-13T02:39:21.569Z,12.95
2018-09-13T02:39:56.774Z,14.68
2018-09-13T02:40:32.074Z,14.15
2018-09-13T02:41:07.309Z,12.60
2018-09-13T02:41:42.943Z,20.10
2018-09-13T02:42:18.374Z,15.23
2018-09-13T02:42:53.620Z,19.73
2018-09-13T02:43:28.872Z,19.37
2018-09-13T02:44:04.302Z,17.12
2018-09-13T02:44:39.503Z,18.90
2018-09-13T02:45:14.846Z,17.25
2018-09-13T02:45:50.216Z,18.07
2018-09-13T02:46:25.463Z,14.68
2018-09-13T02:47:00.830Z,14.18
2018-09-13T02:47:36.097Z,12.07
2018-09-13T02:48:11.415Z,14.15
2018-09-13T02:48:47.134Z,15.08
2018-09-13T02:49:22.551Z,13.95
2018-09-13T02:49:57.911Z,12.82
2018-09-13T02:50:33.113Z,12.28
2018-09-13T02:51:08.496Z,14.63
2018-09-13T02:51:43.843Z,13.60
2018-09-13T02:52:19.157Z,12.10
2018-09-13T02:52:54.418Z,13.53
2018-09-13T02:53:29.619Z,11.85
2018-09-13T02:54:04.820Z,13.20
2018-09-13T02:54:40.071Z,13.20
2018-09-13T02:55:15.429Z,10.82
2018-09-13T02:55:50.936Z,14.53
2018-09-13T02:56:26.146Z,10.80
2018-09-13T02:57:01.333Z,12.45
2018-09-13T02:57:36.557Z,12.55
2018-09-13T02:58:11.896Z,12.40
2018-09-13T02:58:47.191Z,13.55
2018-09-13T02:59:22.622Z,11.53
2018-09-13T02:59:57.872Z,12.33
2018-09-13T03:00:33.104Z,13.22
2018-09-13T03:01:08.303Z,12.30
2018-09-13T03:01:43.708Z,12.15
2018-09-13T03:02:19.031Z,15.72
2018-09-13T03:02:54.608Z,11.73
2018-09-13T03:03:29.296Z,10.85
2018-09-13T03:04:04.638Z,9.98
2018-09-13T03:04:40.009Z,10.55
2018-09-13T03:05:15.328Z,10.90
2018-09-13T03:05:50.590Z,11.53
2018-09-13T03:06:25.772Z,12.53
2018-09-13T03:07:02.393Z,11.05
2018-09-13T03:07:37.613Z,11.08
2018-09-13T03:08:12.870Z,11.03
2018-09-13T03:08:48.558Z,11.90
2018-09-13T03:09:23.745Z,11.48
2018-09-13T03:09:58.931Z,11.78
2018-09-13T03:10:40.447Z,12.75
2018-09-13T03:11:15.222Z,11.43
2018-09-13T03:11:50.521Z,11.28
2018-09-13T03:12:25.755Z,13.35
2018-09-13T03:13:01.293Z,12.70
2018-09-13T03:13:36.495Z,13.18
2018-09-13T03:14:12.039Z,12.88
2018-09-13T03:14:47.362Z,12.18
2018-09-13T03:15:22.735Z,14.80
2018-09-13T03:15:57.954Z,11.20
2018-09-13T03:16:33.186Z,11.28
2018-09-13T03:17:08.819Z,12.80
2018-09-13T03:17:44.211Z,11.03
2018-09-13T03:18:19.564Z,11.65
2018-09-13T03:18:54.769Z,11.63
2018-09-13T03:19:30.002Z,11.68
2018-09-13T03:20:05.226Z,13.95
2018-09-13T03:20:40.751Z,12.95
2018-09-13T03:21:16.082Z,11.68
2018-09-13T03:21:51.697Z,12.90
2018-09-13T03:22:26.999Z,12.78
2018-09-13T03:23:02.350Z,11.55
2018-09-13T03:23:37.627Z,12.05
2018-09-13T03:24:13.005Z,11.73
2018-09-13T03:24:48.373Z,11.70
2018-09-13T03:25:23.589Z,11.45
2018-09-13T03:25:58.782Z,12.88
2018-09-13T03:26:34.459Z,11.75
2018-09-13T03:27:09.661Z,11.83
2018-09-13T03:27:45.126Z,11.08
2018-09-13T03:28:20.502Z,13.78
2018-09-13T03:28:55.720Z,10.65
2018-09-13T03:29:30.941Z,11.55
2018-09-13T03:30:06.154Z,11.35
2018-09-13T03:30:41.572Z,10.43
2018-09-13T03:31:17.039Z,10.58
2018-09-13T03:31:52.266Z,11.83
2018-09-13T03:32:27.478Z,11.08
2018-09-13T03:33:02.927Z,11.75
2018-09-13T03:33:38.458Z,12.10
2018-09-13T03:34:13.948Z,11.78
2018-09-13T03:34:49.315Z,10.80
2018-09-13T03:35:24.538Z,10.85
2018-09-13T03:35:59.748Z,13.55
2018-09-13T03:36:34.926Z,10.82
2018-09-13T03:37:10.164Z,11.20
2018-09-13T03:37:45.458Z,10.30
2018-09-13T03:38:20.727Z,13.38
2018-09-13T03:38:55.942Z,11.97
2018-09-13T03:39:31.271Z,11.70
2018-09-13T03:40:06.516Z,12.80
2018-09-13T03:40:41.818Z,10.98
2018-09-13T03:41:17.099Z,10.43
2018-09-13T03:41:52.395Z,11.25
2018-09-13T03:42:27.796Z,10.35
2018-09-13T03:43:03.015Z,12.05
2018-09-13T03:43:38.760Z,10.13
2018-09-13T03:44:14.100Z,11.38
2018-09-13T03:44:49.373Z,10.63
2018-09-13T03:45:24.675Z,11.45
2018-09-13T03:45:59.864Z,11.05
2018-09-13T03:46:41.984Z,10.40
2018-09-13T03:47:17.312Z,12.60
2018-09-13T03:47:52.557Z,12.93
2018-09-13T03:48:28.282Z,11.40
2018-09-13T03:49:03.488Z,10.63
2018-09-13T03:49:38.718Z,14.18
2018-09-13T03:50:14.239Z,11.55
2018-09-13T03:50:49.809Z,10.93
2018-09-13T03:51:25.110Z,10.08
2018-09-13T03:52:00.575Z,11.38
2018-09-13T03:52:35.740Z,11.15
2018-09-13T03:53:10.980Z,11.68
2018-09-13T03:53:46.311Z,11.60
2018-09-13T03:54:21.685Z,10.60
2018-09-13T03:54:56.902Z,10.40
2018-09-13T03:55:32.122Z,11.55
2018-09-13T03:56:07.469Z,13.25
2018-09-13T03:56:43.044Z,12.85
2018-09-13T03:57:18.577Z,11.40
2018-09-13T03:57:53.823Z,10.08
2018-09-13T03:58:28.982Z,11.25
2018-09-13T03:59:04.222Z,12.85
2018-09-13T03:59:39.447Z,10.40
2018-09-13T04:00:15.211Z,9.93
2018-09-13T04:00:50.640Z,9.78
2018-09-13T04:01:25.807Z,10.55
2018-09-13T04:02:00.985Z,10.90
2018-09-13T04:02:36.155Z,11.03
2018-09-13T04:03:12.355Z,13.30
2018-09-13T04:03:47.874Z,14.23
2018-09-13T04:04:23.278Z,10.65
2018-09-13T04:04:58.538Z,11.30
2018-09-13T04:05:33.826Z,14.20
2018-09-13T04:06:09.055Z,10.30
2018-09-13T04:06:44.335Z,11.40
2018-09-13T04:07:19.642Z,14.73
2018-09-13T04:07:55.213Z,10.72
2018-09-13T04:08:30.522Z,10.85
2018-09-13T04:09:08.831Z,13.60
2018-09-13T04:09:44.244Z,9.43
2018-09-13T04:10:19.560Z,10.32
2018-09-13T04:10:55.079Z,10.53
2018-09-13T04:11:30.276Z,12.58
2018-09-13T04:12:05.678Z,12.60
2018-09-13T04:12:40.926Z,12.15
2018-09-13T04:13:16.336Z,10.90
2018-09-13T04:13:51.595Z,13.98
2018-09-13T04:14:27.091Z,11.03
2018-09-13T04:15:02.274Z,11.18
2018-09-13T04:15:37.461Z,12.03
2018-09-13T04:16:12.695Z,10.65
2018-09-13T04:16:47.510Z,10.63
2018-09-13T04:17:22.710Z,10.05
2018-09-13T04:17:57.914Z,10.15
2018-09-13T04:18:33.112Z,10.65
2018-09-13T04:19:08.274Z,10.13
2018-09-13T04:19:44.422Z,10.35
2018-09-13T04:20:19.689Z,10.35
2018-09-13T04:20:54.869Z,10.30
2018-09-13T04:21:30.386Z,10.80
2018-09-13T04:22:05.951Z,12.45
2018-09-13T04:22:41.640Z,10.00
2018-09-13T04:23:17.076Z,10.28
2018-09-13T04:23:52.293Z,11.65
2018-09-13T04:24:27.687Z,12.53
2018-09-13T04:25:02.923Z,11.20
2018-09-13T04:25:38.203Z,11.35
2018-09-13T04:26:12.958Z,10.65
2018-09-13T04:26:47.743Z,12.15
2018-09-13T04:27:22.641Z,10.72
2018-09-13T04:27:57.891Z,11.38
2018-09-13T04:28:33.116Z,10.30
2018-09-13T04:29:08.287Z,10.40
2018-09-13T04:29:43.827Z,11.68
2018-09-13T04:30:19.277Z,10.93
2018-09-13T04:30:54.474Z,9.48
2018-09-13T04:31:29.657Z,10.72
2018-09-13T04:32:05.110Z,11.15
2018-09-13T04:32:40.318Z,11.53
2018-09-13T04:33:15.661Z,10.80
2018-09-13T04:33:50.937Z,13.75
2018-09-13T04:34:26.120Z,11.12
2018-09-13T04:35:01.309Z,12.85
2018-09-13T04:35:36.539Z,10.03
2018-09-13T04:36:12.377Z,10.38
2018-09-13T04:36:47.849Z,10.40
2018-09-13T04:37:23.104Z,12.82
2018-09-13T04:37:58.310Z,11.10
2018-09-13T04:38:33.552Z,10.13
2018-09-13T04:39:09.846Z,9.80
2018-09-13T04:39:45.260Z,10.20
2018-09-13T04:40:20.857Z,9.90
2018-09-13T04:40:56.039Z,10.13
2018-09-13T04:41:31.606Z,10.90
2018-09-13T04:42:06.816Z,11.00
2018-09-13T04:42:42.099Z,13.38
2018-09-13T04:43:17.510Z,11.33
2018-09-13T04:43:52.729Z,10.10
2018-09-13T04:44:27.908Z,11.03
2018-09-13T04:45:03.157Z,11.25
2018-09-13T04:45:38.304Z,10.82
2018-09-13T04:46:13.626Z,10.48
2018-09-13T04:46:49.013Z,11.73
2018-09-13T04:47:24.366Z,10.15
2018-09-13T04:47:59.554Z,9.55
2018-09-13T04:48:34.786Z,11.25
2018-09-13T04:49:09.505Z,11.73
2018-09-13T04:49:44.931Z,11.40
2018-09-13T04:50:20.202Z,11.18
2018-09-13T04:50:55.421Z,12.07
2018-09-13T04:51:30.618Z,11.03
2018-09-13T04:52:06.157Z,10.48
2018-09-13T04:52:41.494Z,12.03
2018-09-13T04:53:16.774Z,11.90
2018-09-13T04:53:52.002Z,10.55
2018-09-13T04:54:27.154Z,9.58
2018-09-13T04:55:02.320Z,10.72
2018-09-13T04:55:37.744Z,10.43
2018-09-13T04:56:13.249Z,9.25
2018-09-13T04:56:48.598Z,10.20
2018-09-13T04:57:23.854Z,11.03
2018-09-13T04:57:59.124Z,12.47
2018-09-13T04:58:34.396Z,9.75
2018-09-13T04:59:09.618Z,9.45
2018-09-13T04:59:45.003Z,10.20
2018-09-13T05:00:20.340Z,10.85
2018-09-13T05:00:55.701Z,11.33
2018-09-13T05:01:31.057Z,9.30
2018-09-13T05:02:06.295Z,12.28
2018-09-13T05:02:42.122Z,9.53
2018-09-13T05:03:17.520Z,10.45
2018-09-13T05:03:52.774Z,9.15
2018-09-13T05:04:27.960Z,9.60
2018-09-13T05:05:03.305Z,11.70
2018-09-13T05:05:37.978Z,9.93
2018-09-13T05:06:13.608Z,10.20
2018-09-13T05:06:48.831Z,9.73
2018-09-13T05:07:24.142Z,10.55
2018-09-13T05:07:59.306Z,8.98
2018-09-13T05:08:34.501Z,12.82
2018-09-13T05:09:12.366Z,9.13
2018-09-13T05:09:47.682Z,10.48
2018-09-13T05:10:22.903Z,9.85
2018-09-13T05:10:58.078Z,11.05
2018-09-13T05:11:33.263Z,11.22
2018-09-13T05:12:09.032Z,11.25
2018-09-13T05:13:47.492Z,10.35
2018-09-13T05:14:22.726Z,12.35
2018-09-13T05:14:57.889Z,9.78
2018-09-13T05:15:33.065Z,10.50
2018-09-13T05:16:08.222Z,9.95
2018-09-13T05:16:43.603Z,10.65
2018-09-13T05:17:19.018Z,10.40
2018-09-13T05:17:54.214Z,11.22
2018-09-13T05:18:29.511Z,8.98
2018-09-13T05:19:05.056Z,9.85
2018-09-13T05:19:40.330Z,12.07
2018-09-13T05:20:15.601Z,14.85
2018-09-13T05:20:50.862Z,10.50
2018-09-13T05:21:26.066Z,10.10
2018-09-13T05:22:01.234Z,9.68
2018-09-13T05:22:36.418Z,9.78
2018-09-13T05:23:11.843Z,9.45
2018-09-13T05:23:47.235Z,10.18
2018-09-13T05:24:22.518Z,13.18
2018-09-13T05:24:57.362Z,11.22
2018-09-13T05:25:32.559Z,10.00
2018-09-13T05:26:07.786Z,9.50
2018-09-13T05:26:43.322Z,11.48
2018-09-13T05:27:18.646Z,10.38
2018-09-13T05:27:53.813Z,10.15
2018-09-13T05:28:29.002Z,10.15
2018-09-13T05:29:04.573Z,10.95
2018-09-13T05:29:39.842Z,11.53
2018-09-13T05:30:15.282Z,11.93
2018-09-13T05:30:50.810Z,9.63
2018-09-13T05:31:26.059Z,10.55
2018-09-13T05:32:01.248Z,13.53
2018-09-13T05:32:36.476Z,10.18
2018-09-13T05:33:11.687Z,10.13
2018-09-13T05:33:46.984Z,10.05
2018-09-13T05:34:22.206Z,11.22
2018-09-13T05:34:57.368Z,9.28
2018-09-13T05:35:32.534Z,10.03
2018-09-13T05:36:07.736Z,11.78
2018-09-13T05:36:43.093Z,9.98
2018-09-13T05:37:18.348Z,16.37
2018-09-13T05:37:53.565Z,12.88
2018-09-13T05:38:28.785Z,11.22
2018-09-13T05:39:05.113Z,10.35
2018-09-13T05:39:40.346Z,10.28
2018-09-13T05:40:15.713Z,11.68
2018-09-13T05:40:50.950Z,11.15
2018-09-13T05:41:26.186Z,10.23
2018-09-13T05:42:01.369Z,10.03
2018-09-13T05:42:36.661Z,11.00
2018-09-13T05:43:12.008Z,10.95
2018-09-13T05:43:47.510Z,9.80
2018-09-13T05:44:22.724Z,12.43
2018-09-13T05:44:57.917Z,10.45
2018-09-13T05:45:33.143Z,9.25
2018-09-13T05:46:08.344Z,9.63
2018-09-13T05:46:43.664Z,10.50
2018-09-13T05:47:19.105Z,10.75
2018-09-13T05:47:54.314Z,10.88
2018-09-13T05:48:29.725Z,9.50
2018-09-13T05:49:05.023Z,12.07
2018-09-13T05:49:40.329Z,10.32
2018-09-13T05:50:15.624Z,11.68
2018-09-13T05:50:50.887Z,9.45
2018-09-13T05:51:26.115Z,13.35
2018-09-13T05:52:01.640Z,10.90
2018-09-13T05:52:36.855Z,9.55
2018-09-13T05:53:12.564Z,10.03
2018-09-13T05:53:47.833Z,12.70
2018-09-13T05:54:23.038Z,12.43
2018-09-13T05:54:58.219Z,9.93
2018-09-13T05:55:33.386Z,10.03
2018-09-13T05:56:08.585Z,10.45
2018-09-13T05:56:43.844Z,8.63
2018-09-13T05:57:19.173Z,10.30
2018-09-13T05:57:54.410Z,11.33
2018-09-13T05:58:29.604Z,11.05
2018-09-13T05:59:04.785Z,9.10
2018-09-13T05:59:39.990Z,8.65
2018-09-13T06:00:15.320Z,9.28
2018-09-13T06:00:50.841Z,8.78
2018-09-13T06:01:26.353Z,11.55
2018-09-13T06:02:01.673Z,9.00
2018-09-13T06:02:36.858Z,8.23
2018-09-13T06:03:12.248Z,8.68
2018-09-13T06:03:47.518Z,10.35
2018-09-13T06:04:22.746Z,11.83
2018-09-13T06:04:58.130Z,8.48
2018-09-13T06:05:33.281Z,9.40
2018-09-13T06:06:08.450Z,9.73
2018-09-13T06:06:43.838Z,8.23
2018-09-13T06:07:19.194Z,10.25
2018-09-13T06:07:54.500Z,10.25
2018-09-13T06:08:29.906Z,10.05
2018-09-13T06:09:06.803Z,11.33
2018-09-13T06:09:42.234Z,9.18
2018-09-13T06:10:17.693Z,7.72
2018-09-13T06:10:52.914Z,9.30
2018-09-13T06:11:28.142Z,9.88
2018-09-13T06:12:03.463Z,11.15
2018-09-13T06:12:38.636Z,8.50
2018-09-13T06:13:14.191Z,10.40
2018-09-13T06:13:49.897Z,9.05
2018-09-13T06:14:25.086Z,9.00
2018-09-13T06:15:00.325Z,10.63
2018-09-13T06:15:35.506Z,8.63
2018-09-13T06:16:11.194Z,10.80
2018-09-13T06:16:47.035Z,8.15
2018-09-13T06:17:22.355Z,8.63
2018-09-13T06:17:57.522Z,8.58
2018-09-13T06:18:33.050Z,8.80
2018-09-13T06:19:08.263Z,15.43
2018-09-13T06:19:43.684Z,10.80
2018-09-13T06:20:19.451Z,10.93
2018-09-13T06:20:54.726Z,11.25
2018-09-13T06:21:30.517Z,11.50
2018-09-13T06:22:06.099Z,8.95
2018-09-13T06:22:41.539Z,9.05
2018-09-13T06:23:16.834Z,10.30
2018-09-13T06:23:52.088Z,8.95
2018-09-13T06:24:27.269Z,8.13
2018-09-13T06:25:02.499Z,8.80
2018-09-13T06:25:37.666Z,9.28
2018-09-13T06:26:13.123Z,10.23
2018-09-13T06:26:48.704Z,8.75
2018-09-13T06:27:23.982Z,10.90
2018-09-13T06:27:59.229Z,8.45
2018-09-13T06:28:34.519Z,9.88
2018-09-13T06:29:09.259Z,9.88
2018-09-13T06:29:44.873Z,9.13
2018-09-13T06:30:20.352Z,9.13
2018-09-13T06:30:55.549Z,10.13
2018-09-13T06:31:30.746Z,9.78
2018-09-13T06:32:05.963Z,7.87
2018-09-13T06:32:41.358Z,8.68
2018-09-13T06:33:16.782Z,8.35
2018-09-13T06:33:52.161Z,9.20
2018-09-13T06:34:27.967Z,7.87
2018-09-13T06:35:03.563Z,10.53
2018-09-13T06:35:38.987Z,9.23
2018-09-13T06:36:14.323Z,10.08
2018-09-13T06:36:49.830Z,9.50
2018-09-13T06:37:25.054Z,7.80
2018-09-13T06:38:00.278Z,10.08
2018-09-13T06:38:35.458Z,8.85
2018-09-13T06:39:12.090Z,10.75
2018-09-13T06:39:47.403Z,10.43
2018-09-13T06:40:22.970Z,7.92
2018-09-13T06:40:58.175Z,8.38
2018-09-13T06:41:33.363Z,9.20
2018-09-13T06:42:08.587Z,7.95
2018-09-13T06:42:43.854Z,11.05
2018-09-13T06:43:19.102Z,7.67
2018-09-13T06:43:54.302Z,10.68
2018-09-13T06:44:29.512Z,9.45
2018-09-13T06:45:05.190Z,8.88
2018-09-13T06:45:40.412Z,9.25
2018-09-13T06:46:15.677Z,8.85
2018-09-13T06:46:50.976Z,10.93
2018-09-13T06:47:26.184Z,7.55
2018-09-13T06:48:01.355Z,8.25
2018-09-13T06:48:36.606Z,8.25
2018-09-13T06:49:12.365Z,8.60
2018-09-13T06:49:47.999Z,9.23
2018-09-13T06:50:23.277Z,7.72
2018-09-13T06:50:58.532Z,8.08
2018-09-13T06:51:33.748Z,9.13
2018-09-13T06:52:08.934Z,9.63
2018-09-13T06:52:44.530Z,8.20
2018-09-13T06:53:19.910Z,9.03
2018-09-13T06:53:55.106Z,9.83
2018-09-13T06:54:30.408Z,8.38
2018-09-13T06:55:05.914Z,7.60
2018-09-13T06:55:40.669Z,7.67
2018-09-13T06:56:16.056Z,9.80
2018-09-13T06:56:51.666Z,8.13
2018-09-13T06:57:26.858Z,9.63
2018-09-13T06:58:02.136Z,11.05
2018-09-13T06:58:37.730Z,9.43
2018-09-13T06:59:13.176Z,9.48
2018-09-13T06:59:47.937Z,18.30
2018-09-13T07:00:23.311Z,11.55
2018-09-13T07:00:58.572Z,13.60
2018-09-13T07:01:33.758Z,10.03
2018-09-13T07:02:08.936Z,9.58
2018-09-13T07:02:44.305Z,12.07
2018-09-13T07:03:19.610Z,8.30
2018-09-13T07:03:54.802Z,8.60
2018-09-13T07:04:29.988Z,10.53
2018-09-13T07:05:05.505Z,9.05
2018-09-13T07:05:40.753Z,11.70
2018-09-13T07:06:16.218Z,10.53
2018-09-13T07:06:51.563Z,9.15
2018-09-13T07:07:26.773Z,13.18
2018-09-13T07:08:01.977Z,11.03
2018-09-13T07:08:37.131Z,9.55
2018-09-13T07:09:14.485Z,11.85
2018-09-13T07:09:49.862Z,11.80
2018-09-13T07:10:25.051Z,8.90
2018-09-13T07:11:00.238Z,11.18
2018-09-13T07:11:35.463Z,9.85
2018-09-13T07:12:11.688Z,10.75
2018-09-13T07:12:47.003Z,10.72
2018-09-13T07:13:22.250Z,9.25
2018-09-13T07:13:57.434Z,9.70
2018-09-13T07:14:32.692Z,10.10
2018-09-13T07:15:07.876Z,10.13
2018-09-13T07:15:43.114Z,10.38
2018-09-13T07:16:18.387Z,9.30
2018-09-13T07:16:53.636Z,8.43
2018-09-13T07:17:28.830Z,8.80
2018-09-13T07:18:04.078Z,12.33
2018-09-13T07:18:39.291Z,9.70
2018-09-13T07:19:14.696Z,11.12
2018-09-13T07:19:50.016Z,8.78
2018-09-13T07:20:25.286Z,9.38
2018-09-13T07:21:00.449Z,8.73
2018-09-13T07:21:35.819Z,8.15
2018-09-13T07:22:11.359Z,9.78
2018-09-13T07:22:47.431Z,9.18
2018-09-13T07:23:22.804Z,9.13
2018-09-13T07:23:58.016Z,14.53
2018-09-13T07:24:32.743Z,13.00
2018-09-13T07:25:08.127Z,8.08
2018-09-13T07:25:43.445Z,8.18
2018-09-13T07:26:19.000Z,7.83
2018-09-13T07:26:54.194Z,8.10
2018-09-13T07:27:29.426Z,8.50
2018-09-13T07:28:04.859Z,9.18
2018-09-13T07:28:40.074Z,9.78
2018-09-13T07:29:15.387Z,9.80
2018-09-13T07:29:50.717Z,10.08
2018-09-13T07:30:26.446Z,10.48
2018-09-13T07:31:02.307Z,8.93
2018-09-13T07:31:37.685Z,8.33
2018-09-13T07:32:13.173Z,9.38
2018-09-13T07:32:48.416Z,8.78
2018-09-13T07:33:23.681Z,9.63
2018-09-13T07:33:58.818Z,9.08
2018-09-13T07:34:34.030Z,9.83
2018-09-13T07:35:09.224Z,9.65
2018-09-13T07:35:44.511Z,8.48
2018-09-13T07:36:19.744Z,8.13
2018-09-13T07:36:54.988Z,9.75
2018-09-13T07:37:30.380Z,10.98
2018-09-13T07:38:06.426Z,9.13
2018-09-13T07:38:41.812Z,9.00
2018-09-13T07:39:17.287Z,8.70